createdAt,value
2018-11-04T00:01:06.038Z,20.17
2018-11-04T00:03:35.198Z,19.47
2018-11-04T00:06:04.855Z,19.87
2018-11-04T00:08:33.966Z,19.80
2018-11-04T00:11:03.844Z,20.77
2018-11-04T00:13:32.836Z,20.67
2018-11-04T00:16:01.951Z,21.87
2018-11-04T00:18:31.216Z,21.87
2018-11-04T00:21:00.206Z,20.40
2018-11-04T00:23:29.247Z,21.63
2018-11-04T00:25:58.255Z,20.40
2018-11-04T00:28:29.024Z,19.37
2018-11-04T00:30:58.071Z,20.33
2018-11-04T00:33:27.117Z,22.47
2018-11-04T00:35:56.526Z,20.20
2018-11-04T00:38:25.537Z,23.00
2018-11-04T00:40:54.635Z,21.47
2018-11-04T00:43:23.741Z,20.87
2018-11-04T00:45:52.740Z,21.07
2018-11-04T00:48:22.123Z,21.27
2018-11-04T00:50:52.421Z,21.83
2018-11-04T00:53:21.473Z,21.57
2018-11-04T00:55:55.142Z,21.40
2018-11-04T00:58:25.660Z,23.33
2018-11-04T01:00:54.986Z,20.20
2018-11-04T01:03:24.032Z,24.67
2018-11-04T01:05:53.094Z,21.50
2018-11-04T01:08:22.052Z,25.00
2018-11-04T01:10:51.175Z,23.67
2018-11-04T01:13:20.201Z,28.00
2018-11-04T01:15:49.955Z,21.47
2018-11-04T01:18:18.949Z,21.93
2018-11-04T01:20:49.168Z,21.27
2018-11-04T01:23:18.145Z,22.23
2018-11-04T01:25:47.853Z,21.73
2018-11-04T01:28:16.972Z,21.50
2018-11-04T01:30:46.235Z,22.27
2018-11-04T01:33:15.258Z,21.67
2018-11-04T01:35:44.332Z,21.80
2018-11-04T01:38:13.970Z,21.10
2018-11-04T01:40:42.959Z,21.97
2018-11-04T01:43:11.981Z,21.00
2018-11-04T01:45:40.951Z,21.07
2018-11-04T01:48:10.274Z,21.73
2018-11-04T01:50:39.321Z,24.67
2018-11-04T01:53:08.358Z,23.30
2018-11-04T01:55:37.522Z,21.17
2018-11-04T01:58:06.507Z,22.97
2018-11-04T02:00:35.588Z,23.73
2018-11-04T02:03:04.601Z,22.47
2018-11-04T02:05:33.607Z,20.43
2018-11-04T02:08:02.624Z,21.90
2018-11-04T02:10:31.608Z,23.37
2018-11-04T02:13:01.109Z,20.90
2018-11-04T02:15:30.110Z,22.23
2018-11-04T02:17:59.373Z,22.27
2018-11-04T02:20:28.483Z,25.13
2018-11-04T02:22:57.480Z,23.83
2018-11-04T02:25:26.521Z,21.07
2018-11-04T02:27:55.679Z,22.70
2018-11-04T02:30:24.742Z,21.53
2018-11-04T02:32:55.671Z,21.20
2018-11-04T02:35:24.706Z,22.83
2018-11-04T02:37:54.467Z,21.30
2018-11-04T02:40:23.569Z,23.17
2018-11-04T02:42:52.595Z,21.67
2018-11-04T02:45:21.573Z,20.33
2018-11-04T02:47:50.559Z,22.73
2018-11-04T02:50:21.153Z,23.00
2018-11-04T02:52:50.151Z,22.27
2018-11-04T02:55:19.172Z,22.50
2018-11-04T02:57:48.188Z,23.80
2018-11-04T03:00:17.199Z,22.60
2018-11-04T03:02:46.294Z,21.83
2018-11-04T03:05:15.343Z,21.37
2018-11-04T03:07:44.259Z,23.77
2018-11-04T03:10:14.055Z,22.97
2018-11-04T03:12:43.807Z,26.53
2018-11-04T03:15:12.814Z,35.47
2018-11-04T03:17:42.115Z,35.00
2018-11-04T03:20:11.068Z,26.67
2018-11-04T03:22:40.069Z,29.70
2018-11-04T03:25:09.052Z,34.43
2018-11-04T03:27:38.042Z,39.43
2018-11-04T03:30:08.008Z,31.50
2018-11-04T03:32:36.967Z,28.30
2018-11-04T03:35:06.835Z,28.23
2018-11-04T03:37:35.863Z,23.37
2018-11-04T03:40:07.346Z,23.17
2018-11-04T03:42:36.500Z,26.50
2018-11-04T03:45:06.263Z,24.63
2018-11-04T03:47:35.286Z,23.97
2018-11-04T03:50:06.944Z,25.37
2018-11-04T03:52:35.979Z,23.70
2018-11-04T03:55:06.536Z,25.17
2018-11-04T03:57:36.495Z,24.83
2018-11-04T04:00:06.337Z,25.77
2018-11-04T04:02:35.361Z,24.87
2018-11-04T04:05:05.078Z,23.53
2018-11-04T04:07:34.225Z,25.07
2018-11-04T04:10:03.299Z,25.33
2018-11-04T04:12:32.579Z,25.20
2018-11-04T04:15:01.700Z,23.97
2018-11-04T04:17:30.926Z,24.63
2018-11-04T04:20:00.028Z,23.17
2018-11-04T04:22:29.139Z,23.20
2018-11-04T04:24:58.164Z,23.37
2018-11-04T04:27:27.246Z,24.00
2018-11-04T04:29:56.289Z,22.77
2018-11-04T04:32:25.328Z,23.20
2018-11-04T04:34:54.475Z,24.87
2018-11-04T04:37:23.713Z,23.57
2018-11-04T04:39:52.884Z,23.80
2018-11-04T04:42:21.977Z,24.17
2018-11-04T04:44:50.931Z,21.93
2018-11-04T04:47:19.992Z,25.40
2018-11-04T04:49:49.279Z,26.37
2018-11-04T04:52:18.374Z,25.70
2018-11-04T04:54:47.316Z,25.87
2018-11-04T04:57:16.255Z,27.10
2018-11-04T04:59:45.249Z,23.70
2018-11-04T05:02:14.524Z,24.60
2018-11-04T05:04:43.520Z,25.87
2018-11-04T05:07:12.481Z,23.97
2018-11-04T05:09:41.511Z,29.10
2018-11-04T05:12:10.468Z,23.90
2018-11-04T05:14:39.424Z,28.13
2018-11-04T05:17:08.438Z,24.30
2018-11-04T05:19:37.506Z,24.20
2018-11-04T05:22:06.764Z,23.90
2018-11-04T05:24:35.824Z,25.00
2018-11-04T05:27:05.126Z,23.13
2018-11-04T05:29:34.274Z,23.57
2018-11-04T05:32:03.335Z,24.10
2018-11-04T05:34:32.347Z,22.83
2018-11-04T05:37:01.529Z,24.43
2018-11-04T05:39:30.553Z,24.90
2018-11-04T05:41:59.619Z,27.37
2018-11-04T05:44:28.641Z,23.83
2018-11-04T05:46:57.656Z,23.83
2018-11-04T05:49:26.767Z,24.07
2018-11-04T05:51:55.783Z,22.10
2018-11-04T05:54:24.867Z,24.00
2018-11-04T05:56:53.967Z,25.77
2018-11-04T05:59:23.000Z,22.30
2018-11-04T06:01:52.018Z,23.97
2018-11-04T06:04:21.128Z,23.20
2018-11-04T06:06:50.226Z,28.47
2018-11-04T06:09:19.526Z,24.13
2018-11-04T06:11:48.704Z,23.13
2018-11-04T06:14:17.699Z,27.43
2018-11-04T06:16:46.988Z,25.40
2018-11-04T06:19:16.154Z,25.53
2018-11-04T06:21:45.256Z,24.50
2018-11-04T06:24:14.786Z,23.50
2018-11-04T06:26:43.951Z,29.17
2018-11-04T06:29:14.526Z,27.03
2018-11-04T06:31:43.759Z,26.13
2018-11-04T06:34:12.842Z,30.20
2018-11-04T06:36:42.212Z,25.53
2018-11-04T06:39:11.312Z,27.60
2018-11-04T06:41:40.439Z,29.00
2018-11-04T06:44:09.603Z,26.60
2018-11-04T06:46:38.669Z,25.70
2018-11-04T06:49:07.787Z,25.37
2018-11-04T06:51:36.874Z,28.53
2018-11-04T06:54:06.119Z,23.37
2018-11-04T06:56:35.215Z,27.53
2018-11-04T06:59:04.536Z,24.20
2018-11-04T07:01:33.726Z,25.93
2018-11-04T07:04:14.193Z,26.50
2018-11-04T07:06:43.307Z,23.70
2018-11-04T07:09:13.257Z,29.40
2018-11-04T07:11:42.361Z,23.00
2018-11-04T07:14:11.594Z,24.17
2018-11-04T07:16:40.790Z,26.03
2018-11-04T07:19:10.812Z,25.07
2018-11-04T07:21:39.977Z,28.00
2018-11-04T07:24:09.473Z,27.60
2018-11-04T07:26:38.570Z,25.93
2018-11-04T07:29:08.493Z,25.90
2018-11-04T07:31:37.567Z,25.53
2018-11-04T07:34:06.803Z,35.40
2018-11-04T07:36:35.990Z,28.17
2018-11-04T07:39:08.846Z,30.40
2018-11-04T07:41:37.983Z,27.33
2018-11-04T07:44:07.180Z,29.73
2018-11-04T07:46:36.237Z,28.53
2018-11-04T07:49:05.815Z,27.60
2018-11-04T07:51:34.973Z,24.70
2018-11-04T07:54:04.105Z,27.87
2018-11-04T07:56:33.260Z,26.27
2018-11-04T07:59:02.400Z,28.60
2018-11-04T08:01:32.470Z,28.67
2018-11-04T08:04:01.702Z,29.27
2018-11-04T08:06:31.284Z,28.03
2018-11-04T08:09:00.499Z,27.40
2018-11-04T08:11:29.767Z,25.67
2018-11-04T08:13:58.768Z,27.77
2018-11-04T08:16:27.888Z,28.50
2018-11-04T08:18:57.054Z,25.83
2018-11-04T08:21:26.320Z,20.03
2018-11-04T08:23:55.413Z,24.63
2018-11-04T08:26:24.515Z,23.87
2018-11-04T08:28:53.617Z,29.00
2018-11-04T08:31:22.695Z,26.73
2018-11-04T08:33:51.997Z,28.00
2018-11-04T08:36:21.331Z,27.30
2018-11-04T08:38:50.381Z,26.73
2018-11-04T08:41:19.579Z,27.70
2018-11-04T08:43:48.631Z,29.73
2018-11-04T08:46:17.668Z,25.50
2018-11-04T08:48:46.641Z,27.60
2018-11-04T08:51:15.774Z,22.97
2018-11-04T08:53:46.596Z,22.90
2018-11-04T08:56:15.859Z,25.63
2018-11-04T08:58:44.884Z,24.00
2018-11-04T09:01:14.074Z,22.97
2018-11-04T09:03:43.171Z,25.17
2018-11-04T09:06:12.198Z,28.13
2018-11-04T09:08:41.445Z,26.83
2018-11-04T09:11:10.583Z,22.27
2018-11-04T09:13:39.729Z,21.70
2018-11-04T09:16:08.828Z,22.27
2018-11-04T09:18:38.059Z,27.57
2018-11-04T09:21:07.393Z,23.90
2018-11-04T09:23:36.858Z,27.33
2018-11-04T09:26:06.287Z,28.30
2018-11-04T09:28:35.626Z,28.97
2018-11-04T09:31:04.730Z,24.33
2018-11-04T09:33:33.971Z,22.00
2018-11-04T09:36:03.092Z,23.83
2018-11-04T09:38:32.189Z,22.23
2018-11-04T09:41:01.346Z,26.53
2018-11-04T09:43:30.407Z,24.40
2018-11-04T09:45:59.609Z,23.43
2018-11-04T09:48:28.689Z,24.30
2018-11-04T09:50:57.763Z,23.47
2018-11-04T09:53:26.948Z,25.70
2018-11-04T09:55:57.714Z,25.40
2018-11-04T09:58:26.875Z,24.33
2018-11-04T10:00:56.274Z,31.60
2018-11-04T10:03:25.389Z,26.77
2018-11-04T10:05:54.587Z,25.33
2018-11-04T10:08:23.721Z,23.90
2018-11-04T10:10:52.826Z,36.90
2018-11-04T10:13:21.877Z,25.30
2018-11-04T10:15:50.960Z,26.17
2018-11-04T10:18:20.148Z,26.63
2018-11-04T10:20:49.611Z,27.93
2018-11-04T10:23:18.276Z,24.63
2018-11-04T10:25:47.365Z,23.00
2018-11-04T10:28:16.496Z,23.20
2018-11-04T10:30:45.564Z,23.23
2018-11-04T10:33:14.658Z,23.40
2018-11-04T10:35:43.724Z,27.87
2018-11-04T10:38:12.794Z,23.07
2018-11-04T10:40:41.913Z,19.53
2018-11-04T10:43:10.969Z,24.00
2018-11-04T10:45:40.156Z,20.37
2018-11-04T10:48:09.186Z,19.97
2018-11-04T10:50:38.433Z,20.47
2018-11-04T10:53:07.489Z,20.17
2018-11-04T10:55:36.778Z,19.63
2018-11-04T10:58:05.778Z,20.73
2018-11-04T11:00:43.031Z,18.30
2018-11-04T11:03:12.060Z,19.17
2018-11-04T11:05:41.906Z,18.43
2018-11-04T11:08:10.885Z,19.77
2018-11-04T11:10:39.859Z,20.70
2018-11-04T11:13:09.227Z,18.97
2018-11-04T11:15:38.312Z,19.80
2018-11-04T11:18:07.404Z,19.53
2018-11-04T11:20:36.483Z,19.87
2018-11-04T11:23:06.155Z,22.90
2018-11-04T11:25:35.278Z,20.43
2018-11-04T11:28:04.398Z,22.10
2018-11-04T11:30:33.493Z,22.00
2018-11-04T11:33:02.524Z,19.67
2018-11-04T11:35:37.256Z,21.37
2018-11-04T11:38:06.799Z,21.27
2018-11-04T11:40:36.626Z,23.70
2018-11-04T11:43:05.723Z,19.07
2018-11-04T11:45:34.819Z,22.87
2018-11-04T11:48:03.839Z,18.83
2018-11-04T11:50:33.200Z,22.60
2018-11-04T11:53:02.180Z,20.87
2018-11-04T11:55:31.642Z,21.43
2018-11-04T11:58:00.665Z,23.90
2018-11-04T12:00:29.744Z,20.10
2018-11-04T12:02:58.955Z,20.63
2018-11-04T12:05:28.003Z,21.17
2018-11-04T12:07:57.207Z,21.00
2018-11-04T12:10:26.219Z,23.30
2018-11-04T12:12:55.305Z,22.83
2018-11-04T12:15:25.395Z,22.43
2018-11-04T12:17:55.339Z,18.83
2018-11-04T12:20:24.411Z,20.93
2018-11-04T12:22:53.540Z,19.90
2018-11-04T12:25:22.658Z,19.50
2018-11-04T12:27:51.679Z,19.30
2018-11-04T12:30:21.477Z,20.83
2018-11-04T12:32:50.495Z,21.03
2018-11-04T12:35:19.570Z,22.20
2018-11-04T12:37:48.572Z,18.50
2018-11-04T12:40:17.611Z,21.07
2018-11-04T12:42:46.690Z,19.17
2018-11-04T12:45:16.425Z,17.43
2018-11-04T12:47:45.490Z,20.17
2018-11-04T12:50:14.571Z,17.33
2018-11-04T12:52:43.711Z,16.33
2018-11-04T12:55:12.752Z,17.70
2018-11-04T12:57:41.793Z,19.93
2018-11-04T13:00:13.885Z,17.07
2018-11-04T13:02:44.001Z,18.63
2018-11-04T13:05:13.164Z,18.00
2018-11-04T13:07:42.340Z,18.63
2018-11-04T13:10:12.755Z,15.63
2018-11-04T13:12:41.866Z,19.77
2018-11-04T13:15:12.406Z,16.37
2018-11-04T13:17:42.965Z,17.97
2018-11-04T13:20:12.295Z,16.93
2018-11-04T13:22:41.418Z,17.77
2018-11-04T13:25:10.826Z,16.33
2018-11-04T13:27:39.879Z,14.70
2018-11-04T13:30:10.412Z,15.80
2018-11-04T13:32:39.560Z,14.57
2018-11-04T13:35:08.743Z,13.93
2018-11-04T13:37:37.887Z,13.70
2018-11-04T13:40:08.348Z,10.50
2018-11-04T13:42:37.508Z,9.30
2018-11-04T13:45:07.314Z,8.10
2018-11-04T13:47:36.751Z,7.83
2018-11-04T13:50:07.922Z,8.70
2018-11-04T13:52:37.102Z,7.77
2018-11-04T13:55:07.150Z,7.60
2018-11-04T13:57:36.304Z,8.17
2018-11-04T14:00:07.186Z,7.57
2018-11-04T14:02:36.292Z,7.23
2018-11-04T14:05:06.397Z,7.23
2018-11-04T14:07:35.565Z,6.97
2018-11-04T14:10:05.097Z,7.00
2018-11-04T14:12:34.335Z,6.90
2018-11-04T14:15:04.451Z,6.87
2018-11-04T14:17:33.698Z,6.70
2018-11-04T14:20:02.884Z,7.20
2018-11-04T14:22:32.019Z,6.87
2018-11-04T14:25:01.166Z,7.10
2018-11-04T14:27:30.947Z,6.73
2018-11-04T14:29:59.966Z,7.17
2018-11-04T14:32:29.343Z,6.10
2018-11-04T14:34:58.491Z,5.57
2018-11-04T14:37:28.196Z,5.83
2018-11-04T14:39:57.293Z,6.43
2018-11-04T14:42:26.997Z,6.03
2018-11-04T14:44:56.203Z,5.90
2018-11-04T14:47:25.758Z,6.27
2018-11-04T14:49:54.775Z,5.90
2018-11-04T14:52:23.851Z,5.90
2018-11-04T14:54:52.795Z,6.00
2018-11-04T14:57:21.813Z,6.10
2018-11-04T14:59:50.958Z,6.03
2018-11-04T15:02:19.882Z,5.73
2018-11-04T15:04:48.873Z,5.73
2018-11-04T15:07:18.052Z,5.43
2018-11-04T15:09:47.340Z,6.20
2018-11-04T15:12:16.504Z,5.80
2018-11-04T15:14:45.597Z,6.43
2018-11-04T15:17:14.798Z,5.87
2018-11-04T15:19:43.817Z,6.30
2018-11-04T15:22:12.912Z,6.77
2018-11-04T15:24:41.930Z,6.93
2018-11-04T15:27:11.089Z,6.57
2018-11-04T15:29:41.236Z,6.17
2018-11-04T15:32:10.314Z,6.27
2018-11-04T15:34:39.836Z,7.60
2018-11-04T15:37:08.771Z,6.70
2018-11-04T15:39:38.541Z,6.60
2018-11-04T15:42:07.628Z,6.20
2018-11-04T15:44:36.796Z,7.03
2018-11-04T15:47:06.006Z,6.93
2018-11-04T15:49:35.771Z,6.30
2018-11-04T15:52:04.955Z,7.60
2018-11-04T15:54:33.991Z,6.60
2018-11-04T15:57:08.586Z,6.77
2018-11-04T15:59:37.728Z,7.93
2018-11-04T16:02:06.837Z,7.70
2018-11-04T16:04:44.546Z,6.93
2018-11-04T16:07:05.570Z,8.07
2018-11-04T16:09:41.277Z,6.47
2018-11-04T16:12:10.936Z,7.67
2018-11-04T16:14:40.467Z,7.67
2018-11-04T16:17:10.204Z,8.57
2018-11-04T16:19:39.361Z,8.70
2018-11-04T16:22:08.372Z,7.67
2018-11-04T16:24:37.449Z,8.50
2018-11-04T16:27:06.481Z,8.53
2018-11-04T16:29:36.212Z,8.77
2018-11-04T16:32:05.432Z,10.50
2018-11-04T16:34:34.486Z,11.20
2018-11-04T16:37:03.628Z,9.90
2018-11-04T16:39:32.772Z,9.37
2018-11-04T16:42:01.854Z,9.97
2018-11-04T16:44:30.885Z,10.10
2018-11-04T16:46:59.790Z,9.20
2018-11-04T16:49:28.792Z,9.27
2018-11-04T16:51:57.777Z,9.17
2018-11-04T16:54:26.742Z,8.33
2018-11-04T16:56:56.009Z,8.50
2018-11-04T16:59:25.653Z,9.10
2018-11-04T17:01:54.908Z,7.73
2018-11-04T17:04:24.041Z,9.50
2018-11-04T17:06:52.869Z,8.33
2018-11-04T17:09:21.955Z,10.37
2018-11-04T17:11:51.108Z,9.80
2018-11-04T17:14:20.111Z,9.03
2018-11-04T17:16:49.209Z,9.50
2018-11-04T17:19:18.211Z,11.10
2018-11-04T17:21:47.235Z,8.33
2018-11-04T17:24:16.312Z,9.90
2018-11-04T17:26:45.287Z,9.10
2018-11-04T17:29:14.266Z,10.07
2018-11-04T17:31:43.819Z,9.47
2018-11-04T17:34:12.816Z,11.13
2018-11-04T17:36:41.857Z,10.50
2018-11-04T17:39:12.190Z,12.07
2018-11-04T17:41:41.581Z,9.23
2018-11-04T17:44:11.002Z,8.87
2018-11-04T17:46:40.033Z,8.17
2018-11-04T17:49:09.610Z,9.27
2018-11-04T17:51:39.345Z,9.17
2018-11-04T17:54:08.567Z,8.83
2018-11-04T17:56:38.323Z,8.90
2018-11-04T17:59:07.367Z,9.73
2018-11-04T18:01:36.515Z,10.60
2018-11-04T18:04:08.236Z,9.10
2018-11-04T18:06:37.492Z,8.83
2018-11-04T18:09:08.645Z,9.33
2018-11-04T18:11:37.821Z,8.63
2018-11-04T18:14:07.195Z,8.40
2018-11-04T18:19:14.324Z,9.23
2018-11-04T18:21:43.391Z,9.00
2018-11-04T18:24:13.256Z,9.13
2018-11-04T18:26:42.236Z,8.87
2018-11-04T18:29:11.197Z,9.20
2018-11-04T18:31:40.350Z,8.90
2018-11-04T18:34:09.484Z,9.93
2018-11-04T18:36:38.542Z,10.10
2018-11-04T18:39:08.363Z,10.00
2018-11-04T18:41:37.889Z,10.00
2018-11-04T18:44:07.224Z,9.27
2018-11-04T18:46:36.393Z,9.67
2018-11-04T18:49:05.780Z,10.57
2018-11-04T18:51:35.011Z,10.70
2018-11-04T18:54:04.256Z,9.57
2018-11-04T18:56:33.433Z,12.53
2018-11-04T18:59:02.649Z,12.07
2018-11-04T19:01:31.567Z,10.27
2018-11-04T19:04:00.645Z,11.43
2018-11-04T19:06:29.922Z,10.73
2018-11-04T19:08:58.926Z,10.23
2018-11-04T19:11:28.256Z,11.70
2018-11-04T19:13:57.289Z,10.83
2018-11-04T19:16:26.318Z,12.77
2018-11-04T19:18:55.461Z,12.20
2018-11-04T19:21:24.402Z,12.43
2018-11-04T19:23:53.505Z,9.93
2018-11-04T19:26:22.511Z,10.90
2018-11-04T19:31:31.176Z,11.33
2018-11-04T19:34:00.183Z,11.73
2018-11-04T19:36:29.498Z,11.13
2018-11-04T19:38:58.527Z,10.27
2018-11-04T19:41:27.631Z,11.53
2018-11-04T19:43:56.757Z,13.40
2018-11-04T19:46:25.903Z,13.90
2018-11-04T19:48:54.983Z,12.23
2018-11-04T19:51:24.081Z,13.50
2018-11-04T19:53:53.144Z,14.27
2018-11-04T19:56:22.453Z,12.40
2018-11-04T19:58:51.632Z,12.10
2018-11-04T20:01:20.713Z,12.67
2018-11-04T20:03:50.336Z,11.93
2018-11-04T20:06:19.430Z,12.30
2018-11-04T20:08:54.166Z,14.13
2018-11-04T20:11:23.882Z,13.53
2018-11-04T20:13:58.567Z,12.30
2018-11-04T20:16:28.037Z,13.73
2018-11-04T20:19:03.813Z,13.10
2018-11-04T20:21:34.459Z,11.70
2018-11-04T20:24:08.798Z,13.63
2018-11-04T20:26:38.948Z,13.17
2018-11-04T20:29:07.994Z,14.37
2018-11-04T20:31:42.330Z,12.73
2018-11-04T20:34:11.495Z,13.77
2018-11-04T20:36:41.255Z,13.90
2018-11-04T20:39:15.725Z,13.73
2018-11-04T20:41:46.102Z,14.53
2018-11-04T20:44:15.172Z,13.43
2018-11-04T20:46:44.310Z,15.33
2018-11-04T20:49:19.128Z,14.77
2018-11-04T20:51:49.562Z,14.80
2018-11-04T20:54:18.673Z,13.90
2018-11-04T20:56:53.099Z,15.37
2018-11-04T20:59:22.498Z,13.80
2018-11-04T21:01:51.990Z,14.47
2018-11-04T21:04:21.031Z,14.90
2018-11-04T21:06:50.041Z,15.27
2018-11-04T21:09:19.142Z,15.73
2018-11-04T21:11:48.331Z,14.93
2018-11-04T21:14:17.440Z,15.50
2018-11-04T21:16:46.660Z,15.10
2018-11-04T21:19:15.451Z,14.87
2018-11-04T21:21:44.481Z,14.73
2018-11-04T21:24:13.378Z,17.60
2018-11-04T21:26:42.525Z,14.93
2018-11-04T21:29:12.032Z,15.53
2018-11-04T21:31:40.965Z,15.33
2018-11-04T21:34:10.034Z,13.37
2018-11-04T21:36:39.317Z,13.30
2018-11-04T21:39:09.547Z,14.23
2018-11-04T21:41:38.747Z,14.57
2018-11-04T21:44:08.556Z,13.40
2018-11-04T21:46:37.759Z,13.27
2018-11-04T21:49:06.787Z,12.67
2018-11-04T21:51:35.777Z,13.00
2018-11-04T21:54:04.901Z,13.33
2018-11-04T21:56:34.651Z,12.47
2018-11-04T21:59:04.109Z,12.83
2018-11-04T22:01:33.155Z,12.70
2018-11-04T22:04:02.332Z,12.80
2018-11-04T22:06:31.281Z,12.80
2018-11-04T22:09:00.244Z,12.20
2018-11-04T22:11:29.310Z,11.93
2018-11-04T22:13:58.386Z,12.33
2018-11-04T22:16:27.423Z,11.53
2018-11-04T22:18:56.539Z,11.37
2018-11-04T22:21:26.446Z,12.03
2018-11-04T22:23:56.149Z,12.70
2018-11-04T22:26:25.280Z,13.23
2018-11-04T22:28:54.417Z,10.93
2018-11-04T22:31:23.469Z,12.33
2018-11-04T22:33:52.579Z,12.97
2018-11-04T22:36:21.840Z,12.07
2018-11-04T22:38:51.042Z,12.73
2018-11-04T22:41:20.741Z,12.10
2018-11-04T22:43:50.059Z,11.20
2018-11-04T22:46:19.038Z,12.27
2018-11-04T22:48:48.113Z,12.27
2018-11-04T22:51:17.534Z,11.67
2018-11-04T22:53:47.018Z,12.50
2018-11-04T22:56:17.849Z,12.73
2018-11-04T22:58:47.671Z,13.60
2018-11-04T23:01:16.937Z,14.13
2018-11-04T23:03:45.940Z,12.70
2018-11-04T23:06:14.988Z,12.83
2018-11-04T23:08:44.094Z,12.93
2018-11-04T23:11:13.117Z,13.20
2018-11-04T23:13:42.291Z,12.53
2018-11-04T23:16:11.327Z,13.77
2018-11-04T23:18:40.513Z,12.47
2018-11-04T23:21:10.495Z,12.73
2018-11-04T23:23:39.518Z,13.43
2018-11-04T23:26:08.876Z,13.77
2018-11-04T23:28:38.015Z,12.23
2018-11-04T23:31:07.022Z,12.57
2018-11-04T23:33:36.141Z,12.27
2018-11-04T23:36:05.789Z,12.80
2018-11-04T23:38:34.849Z,11.30
2018-11-04T23:41:04.061Z,11.57
2018-11-04T23:43:33.057Z,11.50
2018-11-04T23:46:02.191Z,12.30
2018-11-04T23:48:31.251Z,11.10
2018-11-04T23:51:00.379Z,12.90
2018-11-04T23:53:29.699Z,12.37
2018-11-04T23:55:59.513Z,12.00
2018-11-04T23:58:28.663Z,13.33
